sensor_id;sensor_type;location;lat;lon;timestamp;pressure;altitude;pressure_sealevel;temperature;humidity
21879;BME280;27908;42.708;23.278;2023-05-16T04:48:58;64093.28;;;12.85;100.00
21879;BME280;27908;42.708;23.278;2023-05-16T04:51:24;64140.50;;;12.96;100.00
21879;BME280;27908;42.708;23.278;2023-05-16T04:53:50;64125.28;;;13.08;100.00
21879;BME280;27908;42.708;23.278;2023-05-16T04:56:15;64108.47;;;13.16;100.00
21879;BME280;27908;42.708;23.278;2023-05-16T04:58:41;64161.75;;;13.18;100.00
21879;BME280;27908;42.708;23.278;2023-05-16T05:01:06;64147.38;;;13.17;100.00
21879;BME280;27908;42.708;23.278;2023-05-16T05:03:31;64137.25;;;13.27;100.00
21879;BME280;27908;42.708;23.278;2023-05-16T05:05:57;64200.84;;;13.36;100.00
21879;BME280;27908;42.708;23.278;2023-05-16T05:08:22;64197.78;;;13.36;100.00
21879;BME280;27908;42.708;23.278;2023-05-16T05:10:48;64179.94;;;13.41;100.00
21879;BME280;27908;42.708;23.278;2023-05-16T05:13:13;64165.63;;;13.44;100.00
21879;BME280;27908;42.708;23.278;2023-05-16T05:15:38;64167.31;;;13.58;100.00
21879;BME280;27908;42.708;23.278;2023-05-16T05:18:04;64232.88;;;13.57;100.00
21879;BME280;27908;42.708;23.278;2023-05-16T05:20:30;64211.41;;;13.61;100.00
21879;BME280;27908;42.708;23.278;2023-05-16T05:22:55;64243.13;;;13.59;100.00
21879;BME280;27908;42.708;23.278;2023-05-16T05:25:21;64194.94;;;13.55;100.00
21879;BME280;27908;42.708;23.278;2023-05-16T05:27:46;64236.00;;;13.62;100.00
21879;BME280;27908;42.708;23.278;2023-05-16T05:30:12;64257.66;;;13.73;100.00
21879;BME280;27908;42.708;23.278;2023-05-16T05:32:37;64287.94;;;13.78;100.00
21879;BME280;27908;42.708;23.278;2023-05-16T05:35:03;64281.50;;;13.96;100.00
21879;BME280;27908;42.708;23.278;2023-05-16T05:37:29;64326.19;;;14.02;100.00
21879;BME280;27908;42.708;23.278;2023-05-16T05:39:55;64304.44;;;14.25;100.00
21879;BME280;27908;42.708;23.278;2023-05-16T05:42:20;64350.22;;;14.37;100.00
21879;BME280;27908;42.708;23.278;2023-05-16T05:44:46;64354.50;;;14.51;100.00
21879;BME280;27908;42.708;23.278;2023-05-16T05:47:12;64374.09;;;14.59;100.00
21879;BME280;27908;42.708;23.278;2023-05-16T05:49:37;64405.50;;;14.70;100.00
21879;BME280;27908;42.708;23.278;2023-05-16T05:52:03;64415.91;;;14.80;100.00
21879;BME280;27908;42.708;23.278;2023-05-16T05:54:28;64422.13;;;14.86;100.00
21879;BME280;27908;42.708;23.278;2023-05-16T05:56:56;64428.88;;;14.92;100.00
21879;BME280;27908;42.708;23.278;2023-05-16T05:59:21;64434.00;;;14.92;100.00
21879;BME280;27908;42.708;23.278;2023-05-16T06:01:47;64446.34;;;14.94;100.00
21879;BME280;27908;42.708;23.278;2023-05-16T06:04:17;64419.31;;;15.07;100.00
21879;BME280;27908;42.708;23.278;2023-05-16T06:06:43;64446.66;;;15.16;100.00
21879;BME280;27908;42.708;23.278;2023-05-16T06:09:08;64455.94;;;15.20;100.00
21879;BME280;27908;42.708;23.278;2023-05-16T06:11:33;64462.03;;;15.14;100.00
21879;BME280;27908;42.708;23.278;2023-05-16T06:13:59;64484.25;;;15.25;100.00
21879;BME280;27908;42.708;23.278;2023-05-16T06:16:25;64519.31;;;15.36;100.00
21879;BME280;27908;42.708;23.278;2023-05-16T06:18:50;64490.00;;;15.33;100.00
21879;BME280;27908;42.708;23.278;2023-05-16T06:21:16;64491.13;;;15.41;100.00
21879;BME280;27908;42.708;23.278;2023-05-16T06:23:41;64530.22;;;15.44;100.00
21879;BME280;27908;42.708;23.278;2023-05-16T06:26:07;64559.63;;;15.55;100.00
21879;BME280;27908;42.708;23.278;2023-05-16T06:28:32;64535.63;;;15.66;100.00
21879;BME280;27908;42.708;23.278;2023-05-16T06:30:57;64583.53;;;15.75;100.00
21879;BME280;27908;42.708;23.278;2023-05-16T06:33:23;64572.25;;;15.77;100.00
21879;BME280;27908;42.708;23.278;2023-05-16T06:35:48;64573.31;;;15.80;100.00
21879;BME280;27908;42.708;23.278;2023-05-16T06:38:14;64546.97;;;15.70;100.00
21879;BME280;27908;42.708;23.278;2023-05-16T06:40:40;64575.31;;;15.75;100.00
21879;BME280;27908;42.708;23.278;2023-05-16T06:43:06;64620.59;;;15.79;100.00
21879;BME280;27908;42.708;23.278;2023-05-16T06:45:31;64583.09;;;15.80;100.00
21879;BME280;27908;42.708;23.278;2023-05-16T06:47:57;64612.25;;;15.68;100.00
21879;BME280;27908;42.708;23.278;2023-05-16T06:50:22;64558.38;;;15.78;100.00
21879;BME280;27908;42.708;23.278;2023-05-16T06:52:48;64556.91;;;15.82;100.00
21879;BME280;27908;42.708;23.278;2023-05-16T06:55:13;64533.69;;;15.77;100.00
21879;BME280;27908;42.708;23.278;2023-05-16T06:57:39;64574.81;;;15.77;100.00
21879;BME280;27908;42.708;23.278;2023-05-16T07:00:08;64619.06;;;15.80;100.00
21879;BME280;27908;42.708;23.278;2023-05-16T07:02:33;64575.44;;;15.85;100.00
21879;BME280;27908;42.708;23.278;2023-05-16T07:04:59;64625.44;;;15.96;100.00
21879;BME280;27908;42.708;23.278;2023-05-16T07:07:24;64577.50;;;15.87;100.00
21879;BME280;27908;42.708;23.278;2023-05-16T07:09:50;64614.63;;;15.95;100.00
21879;BME280;27908;42.708;23.278;2023-05-16T07:12:15;64721.16;;;15.99;100.00
21879;BME280;27908;42.708;23.278;2023-05-16T07:14:41;64648.31;;;16.15;100.00
21879;BME280;27908;42.708;23.278;2023-05-16T07:17:07;64632.88;;;16.12;100.00
21879;BME280;27908;42.708;23.278;2023-05-16T07:19:33;64650.56;;;16.27;100.00
21879;BME280;27908;42.708;23.278;2023-05-16T07:21:58;64623.31;;;16.30;100.00
21879;BME280;27908;42.708;23.278;2023-05-16T07:24:24;64706.81;;;16.38;100.00
21879;BME280;27908;42.708;23.278;2023-05-16T07:26:49;64652.72;;;16.36;100.00
21879;BME280;27908;42.708;23.278;2023-05-16T07:29:15;64701.25;;;16.48;100.00
21879;BME280;27908;42.708;23.278;2023-05-16T07:31:40;64720.44;;;16.59;100.00
21879;BME280;27908;42.708;23.278;2023-05-16T07:34:06;64689.03;;;16.58;100.00
21879;BME280;27908;42.708;23.278;2023-05-16T07:36:32;64722.47;;;16.58;100.00
21879;BME280;27908;42.708;23.278;2023-05-16T07:38:58;64715.88;;;16.64;100.00
21879;BME280;27908;42.708;23.278;2023-05-16T07:41:23;64755.13;;;16.74;100.00
21879;BME280;27908;42.708;23.278;2023-05-16T07:43:49;64781.97;;;16.78;100.00
21879;BME280;27908;42.708;23.278;2023-05-16T07:46:15;64777.97;;;16.89;100.00
21879;BME280;27908;42.708;23.278;2023-05-16T07:48:40;64773.31;;;16.87;100.00
21879;BME280;27908;42.708;23.278;2023-05-16T07:51:06;64784.72;;;16.93;100.00
21879;BME280;27908;42.708;23.278;2023-05-16T07:53:31;64794.59;;;17.00;100.00
21879;BME280;27908;42.708;23.278;2023-05-16T07:55:57;64774.06;;;17.05;100.00
21879;BME280;27908;42.708;23.278;2023-05-16T07:58:22;64845.72;;;17.09;100.00
21879;BME280;27908;42.708;23.278;2023-05-16T08:00:48;64830.91;;;17.17;100.00
21879;BME280;27908;42.708;23.278;2023-05-16T08:03:13;64863.53;;;17.28;100.00
21879;BME280;27908;42.708;23.278;2023-05-16T08:05:39;64850.03;;;17.20;100.00
21879;BME280;27908;42.708;23.278;2023-05-16T08:08:04;64817.06;;;17.23;100.00
21879;BME280;27908;42.708;23.278;2023-05-16T08:10:30;64867.25;;;17.37;100.00
21879;BME280;27908;42.708;23.278;2023-05-16T08:12:55;64884.91;;;17.46;100.00
21879;BME280;27908;42.708;23.278;2023-05-16T08:15:21;64915.81;;;17.44;99.83
21879;BME280;27908;42.708;23.278;2023-05-16T08:17:46;64870.47;;;17.47;100.00
21879;BME280;27908;42.708;23.278;2023-05-16T08:20:12;64885.66;;;17.64;99.45
21879;BME280;27908;42.708;23.278;2023-05-16T08:22:37;64897.66;;;17.75;99.12
21879;BME280;27908;42.708;23.278;2023-05-16T08:25:03;64948.31;;;17.84;96.49
21879;BME280;27908;42.708;23.278;2023-05-16T08:27:28;64971.56;;;17.86;97.00
21879;BME280;27908;42.708;23.278;2023-05-16T08:29:54;64954.19;;;17.97;96.77
21879;BME280;27908;42.708;23.278;2023-05-16T08:32:20;64969.69;;;17.99;94.44
21879;BME280;27908;42.708;23.278;2023-05-16T08:34:46;64984.31;;;18.11;94.52
21879;BME280;27908;42.708;23.278;2023-05-16T08:37:11;64990.50;;;18.09;95.70
21879;BME280;27908;42.708;23.278;2023-05-16T08:39:38;65038.47;;;18.08;95.48
21879;BME280;27908;42.708;23.278;2023-05-16T08:42:03;64970.88;;;18.10;95.85
21879;BME280;27908;42.708;23.278;2023-05-16T08:44:29;65002.97;;;18.16;95.68
21879;BME280;27908;42.708;23.278;2023-05-16T08:46:55;64993.81;;;18.27;95.10
21879;BME280;27908;42.708;23.278;2023-05-16T08:49:21;65049.28;;;18.43;93.30
21879;BME280;27908;42.708;23.278;2023-05-16T08:51:47;65090.38;;;18.64;92.97
21879;BME280;27908;42.708;23.278;2023-05-16T08:54:14;65133.41;;;18.76;92.96
21879;BME280;27908;42.708;23.278;2023-05-16T08:56:41;65136.03;;;18.78;90.98
21879;BME280;27908;42.708;23.278;2023-05-16T08:59:08;65146.22;;;19.02;91.09
21879;BME280;27908;42.708;23.278;2023-05-16T09:01:34;65191.44;;;19.21;89.20
21879;BME280;27908;42.708;23.278;2023-05-16T09:04:00;65217.41;;;19.30;89.71
21879;BME280;27908;42.708;23.278;2023-05-16T09:06:27;65218.00;;;19.33;88.13
21879;BME280;27908;42.708;23.278;2023-05-16T09:08:53;65216.50;;;19.37;86.69
21879;BME280;27908;42.708;23.278;2023-05-16T09:11:19;65223.13;;;19.31;86.29
21879;BME280;27908;42.708;23.278;2023-05-16T09:13:46;65211.66;;;19.25;86.91
21879;BME280;27908;42.708;23.278;2023-05-16T09:16:16;65235.50;;;19.28;86.52
21879;BME280;27908;42.708;23.278;2023-05-16T09:18:44;65219.97;;;19.28;86.16
21879;BME280;27908;42.708;23.278;2023-05-16T09:21:10;65134.97;;;19.14;87.32
21879;BME280;27908;42.708;23.278;2023-05-16T09:23:36;65213.53;;;19.12;87.45
21879;BME280;27908;42.708;23.278;2023-05-16T09:26:04;65182.09;;;19.17;86.92
21879;BME280;27908;42.708;23.278;2023-05-16T09:28:31;65177.44;;;19.17;86.45
21879;BME280;27908;42.708;23.278;2023-05-16T09:30:56;65184.66;;;19.17;86.91
21879;BME280;27908;42.708;23.278;2023-05-16T09:33:26;65162.31;;;19.08;89.78
21879;BME280;27908;42.708;23.278;2023-05-16T09:35:59;65218.94;;;19.27;88.36
21879;BME280;27908;42.708;23.278;2023-05-16T09:38:26;65201.88;;;19.28;87.82
21879;BME280;27908;42.708;23.278;2023-05-16T09:40:55;65241.69;;;19.26;90.44
21879;BME280;27908;42.708;23.278;2023-05-16T09:43:24;65204.53;;;19.33;88.91
21879;BME280;27908;42.708;23.278;2023-05-16T09:45:50;65209.88;;;19.45;86.50
21879;BME280;27908;42.708;23.278;2023-05-16T09:48:16;65302.06;;;19.52;84.74
21879;BME280;27908;42.708;23.278;2023-05-16T09:50:52;65340.00;;;19.63;84.36
21879;BME280;27908;42.708;23.278;2023-05-16T09:53:28;65313.25;;;19.74;85.84
21879;BME280;27908;42.708;23.278;2023-05-16T09:56:04;65342.94;;;19.85;83.08
21879;BME280;27908;42.708;23.278;2023-05-16T09:58:33;65342.09;;;19.99;82.57
21879;BME280;27908;42.708;23.278;2023-05-16T10:00:59;65362.47;;;20.11;82.20
21879;BME280;27908;42.708;23.278;2023-05-16T10:03:26;65438.75;;;20.22;84.02
21879;BME280;27908;42.708;23.278;2023-05-16T10:05:53;65435.19;;;20.26;80.66
21879;BME280;27908;42.708;23.278;2023-05-16T10:08:24;65443.09;;;20.35;84.30
21879;BME280;27908;42.708;23.278;2023-05-16T10:10:55;65465.38;;;20.34;81.54
21879;BME280;27908;42.708;23.278;2023-05-16T10:13:23;65506.16;;;20.58;80.51
21879;BME280;27908;42.708;23.278;2023-05-16T10:15:49;65451.63;;;20.51;79.60
21879;BME280;27908;42.708;23.278;2023-05-16T10:18:20;65454.94;;;20.30;81.27
21879;BME280;27908;42.708;23.278;2023-05-16T10:20:47;65363.97;;;20.07;83.34
21879;BME280;27908;42.708;23.278;2023-05-16T10:23:16;65357.00;;;19.91;82.90
21879;BME280;27908;42.708;23.278;2023-05-16T10:25:43;65295.88;;;19.53;83.16
21879;BME280;27908;42.708;23.278;2023-05-16T10:28:09;65219.16;;;19.44;84.06
21879;BME280;27908;42.708;23.278;2023-05-16T10:30:36;65251.63;;;19.36;85.89
21879;BME280;27908;42.708;23.278;2023-05-16T10:33:05;65233.41;;;19.26;85.02
21879;BME280;27908;42.708;23.278;2023-05-16T10:35:31;65223.03;;;19.24;87.71
21879;BME280;27908;42.708;23.278;2023-05-16T10:37:57;65243.66;;;19.21;88.37
21879;BME280;27908;42.708;23.278;2023-05-16T10:40:23;65188.31;;;19.20;87.12
21879;BME280;27908;42.708;23.278;2023-05-16T10:42:59;65197.16;;;19.24;88.21
21879;BME280;27908;42.708;23.278;2023-05-16T10:45:26;65178.28;;;19.06;87.95
21879;BME280;27908;42.708;23.278;2023-05-16T10:47:52;65210.94;;;19.10;89.21
21879;BME280;27908;42.708;23.278;2023-05-16T10:53:22;65219.88;;;19.21;89.81
21879;BME280;27908;42.708;23.278;2023-05-16T11:16:58;65165.28;;;18.98;91.30
21879;BME280;27908;42.708;23.278;2023-05-16T11:25:06;65160.91;;;19.19;90.77
21879;BME280;27908;42.708;23.278;2023-05-16T11:27:36;65187.88;;;19.25;91.24
21879;BME280;27908;42.708;23.278;2023-05-16T11:32:35;65218.38;;;19.24;93.74
21879;BME280;27908;42.708;23.278;2023-05-16T11:35:03;65173.72;;;19.11;90.31
21879;BME280;27908;42.708;23.278;2023-05-16T11:37:29;65169.06;;;19.12;91.80
21879;BME280;27908;42.708;23.278;2023-05-16T11:39:59;65143.53;;;18.95;93.44
21879;BME280;27908;42.708;23.278;2023-05-16T11:42:29;65151.16;;;18.88;96.29
21879;BME280;27908;42.708;23.278;2023-05-16T11:45:08;65140.25;;;18.85;94.98
21879;BME280;27908;42.708;23.278;2023-05-16T11:47:38;65185.84;;;18.93;96.22
21879;BME280;27908;42.708;23.278;2023-05-16T11:50:05;65182.50;;;19.10;95.97
21879;BME280;27908;42.708;23.278;2023-05-16T11:52:32;65208.34;;;19.10;97.46
21879;BME280;27908;42.708;23.278;2023-05-16T11:54:57;65175.72;;;19.06;98.57
21879;BME280;27908;42.708;23.278;2023-05-16T11:57:26;65249.06;;;19.36;100.00
21879;BME280;27908;42.708;23.278;2023-05-16T11:59:52;65282.38;;;19.50;100.00
21879;BME280;27908;42.708;23.278;2023-05-16T12:02:17;65289.78;;;19.62;98.53
21879;BME280;27908;42.708;23.278;2023-05-16T12:04:45;65318.94;;;19.75;97.64
21879;BME280;27908;42.708;23.278;2023-05-16T12:07:11;65451.06;;;20.14;93.69
21879;BME280;27908;42.708;23.278;2023-05-16T12:09:37;65444.88;;;20.49;91.77
21879;BME280;27908;42.708;23.278;2023-05-16T12:12:04;65509.53;;;20.73;85.37
21879;BME280;27908;42.708;23.278;2023-05-16T12:14:29;65586.69;;;21.00;84.88
21879;BME280;27908;42.708;23.278;2023-05-16T12:16:55;65595.09;;;21.07;84.37
21879;BME280;27908;42.708;23.278;2023-05-16T12:19:21;65576.72;;;21.27;81.44
21879;BME280;27908;42.708;23.278;2023-05-16T12:21:47;65691.25;;;21.49;80.71
21879;BME280;27908;42.708;23.278;2023-05-16T12:24:15;65697.03;;;21.52;79.43
21879;BME280;27908;42.708;23.278;2023-05-16T12:26:41;65738.72;;;21.62;78.47
21879;BME280;27908;42.708;23.278;2023-05-16T12:29:08;65706.47;;;21.29;76.54
21879;BME280;27908;42.708;23.278;2023-05-16T12:31:37;65585.25;;;21.08;78.94
21879;BME280;27908;42.708;23.278;2023-05-16T12:34:03;65608.16;;;21.12;81.59
21879;BME280;27908;42.708;23.278;2023-05-16T12:36:33;65597.72;;;21.10;80.92
21879;BME280;27908;42.708;23.278;2023-05-16T12:39:02;65573.19;;;20.99;85.09
21879;BME280;27908;42.708;23.278;2023-05-16T12:41:29;65555.38;;;20.87;84.52
21879;BME280;27908;42.708;23.278;2023-05-16T12:44:14;65488.13;;;20.63;87.25
21879;BME280;27908;42.708;23.278;2023-05-16T12:46:43;65532.53;;;20.54;89.21
21879;BME280;27908;42.708;23.278;2023-05-16T12:49:09;65436.91;;;20.37;88.40
21879;BME280;27908;42.708;23.278;2023-05-16T12:51:35;65383.78;;;20.16;90.60
21879;BME280;27908;42.708;23.278;2023-05-16T12:54:08;65408.66;;;20.18;92.42
21879;BME280;27908;42.708;23.278;2023-05-16T12:56:34;65371.19;;;20.04;97.53
21879;BME280;27908;42.708;23.278;2023-05-16T12:59:00;65390.72;;;19.96;99.93
21879;BME280;27908;42.708;23.278;2023-05-16T13:01:25;65324.69;;;19.78;97.90
21879;BME280;27908;42.708;23.278;2023-05-16T13:03:51;65282.00;;;19.60;97.98
21879;BME280;27908;42.708;23.278;2023-05-16T13:06:16;65261.63;;;19.48;99.74
21879;BME280;27908;42.708;23.278;2023-05-16T13:08:42;65178.69;;;19.33;98.94
21879;BME280;27908;42.708;23.278;2023-05-16T13:11:08;65267.31;;;19.46;98.27
21879;BME280;27908;42.708;23.278;2023-05-16T13:13:33;65247.25;;;19.54;98.66
21879;BME280;27908;42.708;23.278;2023-05-16T13:15:59;65233.63;;;19.41;97.59
21879;BME280;27908;42.708;23.278;2023-05-16T13:18:25;65215.84;;;19.26;96.89
21879;BME280;27908;42.708;23.278;2023-05-16T13:20:51;65225.00;;;19.18;98.49
21879;BME280;27908;42.708;23.278;2023-05-16T13:23:17;65218.84;;;19.22;98.18
21879;BME280;27908;42.708;23.278;2023-05-16T13:25:42;65232.50;;;19.35;98.36
21879;BME280;27908;42.708;23.278;2023-05-16T13:28:07;65242.19;;;19.25;100.00
21879;BME280;27908;42.708;23.278;2023-05-16T13:30:33;65311.28;;;19.14;100.00
21879;BME280;27908;42.708;23.278;2023-05-16T13:32:58;65214.91;;;19.35;95.73
21879;BME280;27908;42.708;23.278;2023-05-16T13:35:24;65190.91;;;19.20;100.00
21879;BME280;27908;42.708;23.278;2023-05-16T13:37:50;65164.00;;;19.19;96.91
21879;BME280;27908;42.708;23.278;2023-05-16T13:40:15;65189.25;;;19.11;93.86
21879;BME280;27908;42.708;23.278;2023-05-16T13:42:41;65195.00;;;19.17;96.07
21879;BME280;27908;42.708;23.278;2023-05-16T13:45:07;65220.44;;;19.24;96.65
21879;BME280;27908;42.708;23.278;2023-05-16T13:47:32;65149.88;;;19.06;97.80
21879;BME280;27908;42.708;23.278;2023-05-16T13:49:58;65204.63;;;19.04;97.73
21879;BME280;27908;42.708;23.278;2023-05-16T13:52:28;65185.00;;;19.05;98.61
21879;BME280;27908;42.708;23.278;2023-05-16T13:54:53;65146.63;;;18.95;100.00
21879;BME280;27908;42.708;23.278;2023-05-16T13:57:19;65156.00;;;19.02;100.00
21879;BME280;27908;42.708;23.278;2023-05-16T13:59:47;65159.66;;;19.03;100.00
21879;BME280;27908;42.708;23.278;2023-05-16T14:02:12;65142.56;;;19.01;100.00
21879;BME280;27908;42.708;23.278;2023-05-16T14:04:38;65144.97;;;18.89;100.00
21879;BME280;27908;42.708;23.278;2023-05-16T14:07:03;65161.03;;;18.92;100.00
21879;BME280;27908;42.708;23.278;2023-05-16T14:09:29;65157.34;;;18.86;100.00
21879;BME280;27908;42.708;23.278;2023-05-16T14:11:55;65071.22;;;18.61;100.00
21879;BME280;27908;42.708;23.278;2023-05-16T14:14:21;65057.22;;;18.57;100.00
21879;BME280;27908;42.708;23.278;2023-05-16T14:16:46;65054.41;;;18.40;100.00
21879;BME280;27908;42.708;23.278;2023-05-16T14:19:12;65092.34;;;18.59;100.00
21879;BME280;27908;42.708;23.278;2023-05-16T14:21:38;65065.41;;;18.53;100.00
21879;BME280;27908;42.708;23.278;2023-05-16T14:24:04;65032.72;;;18.39;100.00
21879;BME280;27908;42.708;23.278;2023-05-16T14:26:30;64989.69;;;18.28;100.00
21879;BME280;27908;42.708;23.278;2023-05-16T14:28:57;64999.03;;;18.32;100.00
21879;BME280;27908;42.708;23.278;2023-05-16T14:31:22;65044.91;;;18.26;100.00
21879;BME280;27908;42.708;23.278;2023-05-16T14:33:48;65031.06;;;18.33;100.00
21879;BME280;27908;42.708;23.278;2023-05-16T14:36:13;65005.13;;;18.23;100.00
21879;BME280;27908;42.708;23.278;2023-05-16T14:38:39;64993.38;;;18.31;100.00
21879;BME280;27908;42.708;23.278;2023-05-16T14:41:04;65030.03;;;18.32;100.00
21879;BME280;27908;42.708;23.278;2023-05-16T14:43:30;64985.34;;;18.12;100.00
21879;BME280;27908;42.708;23.278;2023-05-16T14:45:55;64963.97;;;17.96;100.00
21879;BME280;27908;42.708;23.278;2023-05-16T14:48:21;64970.66;;;17.93;100.00
21879;BME280;27908;42.708;23.278;2023-05-16T14:50:46;64886.72;;;17.67;100.00
21879;BME280;27908;42.708;23.278;2023-05-16T14:53:12;64959.19;;;17.84;100.00
21879;BME280;27908;42.708;23.278;2023-05-16T14:55:37;64902.38;;;17.82;100.00
21879;BME280;27908;42.708;23.278;2023-05-16T14:58:04;64972.63;;;17.87;100.00
21879;BME280;27908;42.708;23.278;2023-05-16T15:00:29;64910.66;;;17.82;100.00
21879;BME280;27908;42.708;23.278;2023-05-16T15:02:56;64929.28;;;17.88;100.00
21879;BME280;27908;42.708;23.278;2023-05-16T15:05:22;64957.53;;;17.78;100.00
21879;BME280;27908;42.708;23.278;2023-05-16T15:07:49;64948.28;;;17.79;100.00
21879;BME280;27908;42.708;23.278;2023-05-16T15:10:15;64878.44;;;17.64;100.00
21879;BME280;27908;42.708;23.278;2023-05-16T15:12:41;64921.22;;;17.63;100.00
21879;BME280;27908;42.708;23.278;2023-05-16T15:15:08;64895.97;;;17.64;100.00
21879;BME280;27908;42.708;23.278;2023-05-16T15:17:37;64871.59;;;17.53;100.00
21879;BME280;27908;42.708;23.278;2023-05-16T15:20:06;64871.47;;;17.43;100.00
21879;BME280;27908;42.708;23.278;2023-05-16T15:22:31;64864.84;;;17.49;100.00
21879;BME280;27908;42.708;23.278;2023-05-16T15:24:57;64796.09;;;17.35;100.00
21879;BME280;27908;42.708;23.278;2023-05-16T15:27:22;64815.53;;;17.22;100.00
21879;BME280;27908;42.708;23.278;2023-05-16T15:29:48;64867.00;;;17.19;100.00
21879;BME280;27908;42.708;23.278;2023-05-16T15:32:13;64837.78;;;17.28;100.00
21879;BME280;27908;42.708;23.278;2023-05-16T15:34:39;64791.28;;;17.21;100.00
21879;BME280;27908;42.708;23.278;2023-05-16T15:37:04;64861.81;;;17.14;100.00
21879;BME280;27908;42.708;23.278;2023-05-16T15:39:30;64804.66;;;17.19;100.00
21879;BME280;27908;42.708;23.278;2023-05-16T15:41:55;64800.50;;;17.17;100.00
21879;BME280;27908;42.708;23.278;2023-05-16T15:44:21;64822.50;;;17.07;100.00
21879;BME280;27908;42.708;23.278;2023-05-16T15:46:46;64791.50;;;16.99;100.00
21879;BME280;27908;42.708;23.278;2023-05-16T15:49:12;64779.72;;;17.05;100.00
21879;BME280;27908;42.708;23.278;2023-05-16T15:51:37;64772.16;;;16.78;100.00
21879;BME280;27908;42.708;23.278;2023-05-16T15:54:03;64704.72;;;16.78;100.00
21879;BME280;27908;42.708;23.278;2023-05-16T15:56:29;64725.34;;;16.80;100.00
21879;BME280;27908;42.708;23.278;2023-05-16T15:58:54;64715.38;;;16.66;100.00
21879;BME280;27908;42.708;23.278;2023-05-16T16:01:20;64700.38;;;16.59;100.00
21879;BME280;27908;42.708;23.278;2023-05-16T16:03:45;64700.41;;;16.62;100.00
21879;BME280;27908;42.708;23.278;2023-05-16T16:06:11;64708.16;;;16.67;100.00
21879;BME280;27908;42.708;23.278;2023-05-16T16:08:36;64791.25;;;16.79;100.00
21879;BME280;27908;42.708;23.278;2023-05-16T16:11:02;64742.34;;;16.82;100.00
21879;BME280;27908;42.708;23.278;2023-05-16T16:13:28;64777.44;;;16.86;100.00
21879;BME280;27908;42.708;23.278;2023-05-16T16:15:55;64796.53;;;16.89;100.00
21879;BME280;27908;42.708;23.278;2023-05-16T16:18:21;64773.31;;;16.87;100.00
21879;BME280;27908;42.708;23.278;2023-05-16T16:20:46;64817.22;;;16.97;100.00
21879;BME280;27908;42.708;23.278;2023-05-16T16:23:11;64834.22;;;16.96;100.00
21879;BME280;27908;42.708;23.278;2023-05-16T16:25:37;64803.66;;;16.84;100.00
21879;BME280;27908;42.708;23.278;2023-05-16T16:28:02;64756.06;;;16.68;100.00
21879;BME280;27908;42.708;23.278;2023-05-16T16:30:28;64722.28;;;16.82;100.00
21879;BME280;27908;42.708;23.278;2023-05-16T16:32:53;64766.56;;;16.83;100.00
21879;BME280;27908;42.708;23.278;2023-05-16T16:35:19;64753.09;;;16.75;100.00
21879;BME280;27908;42.708;23.278;2023-05-16T16:37:44;64795.91;;;16.81;100.00
21879;BME280;27908;42.708;23.278;2023-05-16T16:40:12;64771.81;;;16.90;100.00
21879;BME280;27908;42.708;23.278;2023-05-16T16:42:37;64775.94;;;16.89;100.00
21879;BME280;27908;42.708;23.278;2023-05-16T16:45:05;64755.41;;;16.97;100.00
21879;BME280;27908;42.708;23.278;2023-05-16T16:47:30;64785.75;;;16.91;100.00
21879;BME280;27908;42.708;23.278;2023-05-16T16:49:57;64732.59;;;16.85;100.00
21879;BME280;27908;42.708;23.278;2023-05-16T16:52:22;64732.66;;;16.90;100.00
21879;BME280;27908;42.708;23.278;2023-05-16T16:54:48;64770.22;;;16.86;100.00
21879;BME280;27908;42.708;23.278;2023-05-16T16:57:13;64748.63;;;16.90;100.00
21879;BME280;27908;42.708;23.278;2023-05-16T16:59:38;64784.25;;;16.97;100.00
21879;BME280;27908;42.708;23.278;2023-05-16T17:02:04;64773.97;;;16.97;100.00
21879;BME280;27908;42.708;23.278;2023-05-16T17:04:30;64818.22;;;16.95;100.00
21879;BME280;27908;42.708;23.278;2023-05-16T17:06:55;64748.59;;;16.85;100.00
21879;BME280;27908;42.708;23.278;2023-05-16T17:09:21;64743.38;;;16.83;100.00
21879;BME280;27908;42.708;23.278;2023-05-16T17:11:49;64757.22;;;16.76;100.00
21879;BME280;27908;42.708;23.278;2023-05-16T17:14:14;64741.75;;;16.76;100.00
21879;BME280;27908;42.708;23.278;2023-05-16T17:16:40;64756.03;;;16.63;100.00
21879;BME280;27908;42.708;23.278;2023-05-16T17:19:07;64735.94;;;16.64;100.00
21879;BME280;27908;42.708;23.278;2023-05-16T17:21:33;64748.81;;;16.64;100.00
21879;BME280;27908;42.708;23.278;2023-05-16T17:24:01;64748.25;;;16.61;100.00
21879;BME280;27908;42.708;23.278;2023-05-16T17:26:27;64687.88;;;16.50;100.00
21879;BME280;27908;42.708;23.278;2023-05-16T17:28:53;64723.41;;;16.49;100.00
21879;BME280;27908;42.708;23.278;2023-05-16T17:31:20;64670.38;;;16.50;100.00
21879;BME280;27908;42.708;23.278;2023-05-16T17:33:46;64685.78;;;16.45;100.00
21879;BME280;27908;42.708;23.278;2023-05-16T17:36:11;64678.00;;;16.40;100.00
21879;BME280;27908;42.708;23.278;2023-05-16T17:38:36;64684.16;;;16.39;100.00
21879;BME280;27908;42.708;23.278;2023-05-16T17:41:02;64662.50;;;16.36;100.00
21879;BME280;27908;42.708;23.278;2023-05-16T17:43:30;64687.75;;;16.40;100.00
21879;BME280;27908;42.708;23.278;2023-05-16T17:45:56;64694.94;;;16.37;100.00
21879;BME280;27908;42.708;23.278;2023-05-16T17:48:22;64667.06;;;16.30;100.00
21879;BME280;27908;42.708;23.278;2023-05-16T17:50:48;64658.84;;;16.32;100.00
21879;BME280;27908;42.708;23.278;2023-05-16T17:53:14;64686.09;;;16.29;100.00
21879;BME280;27908;42.708;23.278;2023-05-16T17:55:40;64724.56;;;16.21;100.00
21879;BME280;27908;42.708;23.278;2023-05-16T17:58:05;64643.31;;;16.22;100.00